sensor_id;sensor_type;location;lat;lon;timestamp;P1;durP1;ratioP1;P2;durP2;ratioP2
42846;SDS011;28495;49.916;14.536;2022-10-31T00:04:57;21.77;;;13.90;;
42846;SDS011;28495;49.916;14.536;2022-10-31T00:10:18;17.70;;;12.50;;
42846;SDS011;28495;49.916;14.536;2022-10-31T00:15:39;16.17;;;11.55;;
42846;SDS011;28495;49.916;14.536;2022-10-31T00:21:01;21.73;;;12.95;;
42846;SDS011;28495;49.916;14.536;2022-10-31T00:26:22;19.52;;;12.00;;
42846;SDS011;28495;49.916;14.536;2022-10-31T00:31:42;16.88;;;11.13;;
42846;SDS011;28495;49.916;14.536;2022-10-31T00:37:03;17.00;;;10.60;;
42846;SDS011;28495;49.916;14.536;2022-10-31T00:42:24;13.18;;;9.43;;
42846;SDS011;28495;49.916;14.536;2022-10-31T00:47:44;20.70;;;10.88;;
42846;SDS011;28495;49.916;14.536;2022-10-31T00:53:05;13.45;;;8.60;;
42846;SDS011;28495;49.916;14.536;2022-10-31T00:58:26;15.23;;;9.00;;
42846;SDS011;28495;49.916;14.536;2022-10-31T01:03:47;13.88;;;8.70;;
42846;SDS011;28495;49.916;14.536;2022-10-31T01:09:07;10.35;;;7.25;;
42846;SDS011;28495;49.916;14.536;2022-10-31T01:14:28;11.35;;;7.93;;
42846;SDS011;28495;49.916;14.536;2022-10-31T01:19:50;11.20;;;7.40;;
42846;SDS011;28495;49.916;14.536;2022-10-31T01:25:11;12.77;;;7.38;;
42846;SDS011;28495;49.916;14.536;2022-10-31T01:30:32;7.30;;;5.95;;
42846;SDS011;28495;49.916;14.536;2022-10-31T01:35:53;7.95;;;5.88;;
42846;SDS011;28495;49.916;14.536;2022-10-31T01:41:15;13.13;;;6.90;;
42846;SDS011;28495;49.916;14.536;2022-10-31T01:46:39;10.23;;;6.95;;
42846;SDS011;28495;49.916;14.536;2022-10-31T01:57:48;9.05;;;5.72;;
42846;SDS011;28495;49.916;14.536;2022-10-31T02:03:12;7.20;;;5.00;;
42846;SDS011;28495;49.916;14.536;2022-10-31T02:08:33;6.50;;;4.20;;
42846;SDS011;28495;49.916;14.536;2022-10-31T02:13:57;7.60;;;5.45;;
42846;SDS011;28495;49.916;14.536;2022-10-31T02:19:31;7.10;;;5.10;;
42846;SDS011;28495;49.916;14.536;2022-10-31T02:25:17;9.57;;;6.20;;
42846;SDS011;28495;49.916;14.536;2022-10-31T02:48:08;5.22;;;4.72;;
42846;SDS011;28495;49.916;14.536;2022-10-31T02:53:34;6.85;;;4.97;;
42846;SDS011;28495;49.916;14.536;2022-10-31T02:58:58;6.50;;;4.65;;
42846;SDS011;28495;49.916;14.536;2022-10-31T03:15:30;5.53;;;4.85;;
42846;SDS011;28495;49.916;14.536;2022-10-31T03:21:14;5.13;;;4.55;;
42846;SDS011;28495;49.916;14.536;2022-10-31T03:26:41;5.30;;;4.80;;
42846;SDS011;28495;49.916;14.536;2022-10-31T03:32:09;7.17;;;4.80;;
42846;SDS011;28495;49.916;14.536;2022-10-31T03:37:34;5.75;;;5.18;;
42846;SDS011;28495;49.916;14.536;2022-10-31T03:43:00;7.93;;;5.50;;
42846;SDS011;28495;49.916;14.536;2022-10-31T03:48:28;14.00;;;5.38;;
42846;SDS011;28495;49.916;14.536;2022-10-31T03:53:56;10.18;;;5.28;;
42846;SDS011;28495;49.916;14.536;2022-10-31T03:59:30;10.70;;;6.05;;
42846;SDS011;28495;49.916;14.536;2022-10-31T04:04:55;7.32;;;5.75;;
42846;SDS011;28495;49.916;14.536;2022-10-31T04:10:17;7.50;;;5.90;;
42846;SDS011;28495;49.916;14.536;2022-10-31T04:15:39;7.47;;;4.85;;
42846;SDS011;28495;49.916;14.536;2022-10-31T04:21:04;5.78;;;5.00;;
42846;SDS011;28495;49.916;14.536;2022-10-31T04:26:26;6.05;;;4.90;;
42846;SDS011;28495;49.916;14.536;2022-10-31T04:31:47;6.57;;;4.60;;
42846;SDS011;28495;49.916;14.536;2022-10-31T04:37:07;4.60;;;4.07;;
42846;SDS011;28495;49.916;14.536;2022-10-31T04:42:29;5.05;;;4.10;;
42846;SDS011;28495;49.916;14.536;2022-10-31T04:47:55;4.72;;;4.15;;
42846;SDS011;28495;49.916;14.536;2022-10-31T04:53:16;5.53;;;4.32;;
42846;SDS011;28495;49.916;14.536;2022-10-31T04:58:57;4.68;;;3.97;;
42846;SDS011;28495;49.916;14.536;2022-10-31T05:04:21;6.68;;;3.80;;
42846;SDS011;28495;49.916;14.536;2022-10-31T05:09:41;5.43;;;3.88;;
42846;SDS011;28495;49.916;14.536;2022-10-31T05:15:02;4.30;;;3.85;;
42846;SDS011;28495;49.916;14.536;2022-10-31T05:20:58;4.38;;;3.92;;
42846;SDS011;28495;49.916;14.536;2022-10-31T05:26:26;4.97;;;3.90;;
42846;SDS011;28495;49.916;14.536;2022-10-31T05:31:48;4.85;;;3.88;;
42846;SDS011;28495;49.916;14.536;2022-10-31T05:37:29;5.78;;;4.57;;
42846;SDS011;28495;49.916;14.536;2022-10-31T05:42:50;4.88;;;4.30;;
42846;SDS011;28495;49.916;14.536;2022-10-31T05:48:14;5.35;;;3.88;;
42846;SDS011;28495;49.916;14.536;2022-10-31T05:54:13;5.10;;;4.20;;
42846;SDS011;28495;49.916;14.536;2022-10-31T05:59:37;6.25;;;4.55;;
42846;SDS011;28495;49.916;14.536;2022-10-31T06:04:58;4.38;;;3.80;;
42846;SDS011;28495;49.916;14.536;2022-10-31T06:10:19;4.82;;;4.15;;
42846;SDS011;28495;49.916;14.536;2022-10-31T06:15:45;5.35;;;4.38;;
42846;SDS011;28495;49.916;14.536;2022-10-31T06:21:05;6.13;;;4.55;;
42846;SDS011;28495;49.916;14.536;2022-10-31T06:26:28;5.70;;;4.18;;
42846;SDS011;28495;49.916;14.536;2022-10-31T06:31:52;6.30;;;4.38;;
42846;SDS011;28495;49.916;14.536;2022-10-31T06:37:13;4.13;;;3.58;;
42846;SDS011;28495;49.916;14.536;2022-10-31T06:42:38;5.97;;;4.15;;
42846;SDS011;28495;49.916;14.536;2022-10-31T06:48:02;5.10;;;4.50;;
42846;SDS011;28495;49.916;14.536;2022-10-31T06:54:12;7.03;;;4.28;;
42846;SDS011;28495;49.916;14.536;2022-10-31T06:59:33;6.60;;;4.75;;
42846;SDS011;28495;49.916;14.536;2022-10-31T07:10:24;4.20;;;3.80;;
42846;SDS011;28495;49.916;14.536;2022-10-31T07:15:52;7.10;;;4.30;;
42846;SDS011;28495;49.916;14.536;2022-10-31T07:21:15;7.47;;;5.32;;
42846;SDS011;28495;49.916;14.536;2022-10-31T07:26:36;5.47;;;4.03;;
42846;SDS011;28495;49.916;14.536;2022-10-31T07:31:57;7.75;;;5.22;;
42846;SDS011;28495;49.916;14.536;2022-10-31T07:37:21;6.80;;;5.35;;
42846;SDS011;28495;49.916;14.536;2022-10-31T07:42:42;9.30;;;6.40;;
42846;SDS011;28495;49.916;14.536;2022-10-31T07:48:24;9.07;;;6.20;;
42846;SDS011;28495;49.916;14.536;2022-10-31T07:54:03;7.57;;;6.27;;
42846;SDS011;28495;49.916;14.536;2022-10-31T07:59:25;8.82;;;6.45;;
42846;SDS011;28495;49.916;14.536;2022-10-31T08:04:48;8.75;;;6.32;;
42846;SDS011;28495;49.916;14.536;2022-10-31T08:10:28;12.43;;;6.22;;
42846;SDS011;28495;49.916;14.536;2022-10-31T08:15:48;9.25;;;6.55;;
42846;SDS011;28495;49.916;14.536;2022-10-31T08:21:16;12.23;;;6.68;;
42846;SDS011;28495;49.916;14.536;2022-10-31T08:26:38;8.70;;;6.53;;
42846;SDS011;28495;49.916;14.536;2022-10-31T08:32:02;8.32;;;5.60;;
42846;SDS011;28495;49.916;14.536;2022-10-31T08:37:42;10.57;;;5.78;;
42846;SDS011;28495;49.916;14.536;2022-10-31T08:43:04;7.32;;;4.78;;
42846;SDS011;28495;49.916;14.536;2022-10-31T08:48:35;6.40;;;5.45;;
42846;SDS011;28495;49.916;14.536;2022-10-31T08:53:57;11.23;;;5.97;;
42846;SDS011;28495;49.916;14.536;2022-10-31T08:59:33;12.85;;;6.00;;
42846;SDS011;28495;49.916;14.536;2022-10-31T09:05:14;7.70;;;5.25;;
42846;SDS011;28495;49.916;14.536;2022-10-31T09:10:35;8.70;;;5.45;;
42846;SDS011;28495;49.916;14.536;2022-10-31T09:15:57;9.45;;;5.63;;
42846;SDS011;28495;49.916;14.536;2022-10-31T09:21:19;10.77;;;5.18;;
42846;SDS011;28495;49.916;14.536;2022-10-31T09:26:40;14.00;;;5.40;;
42846;SDS011;28495;49.916;14.536;2022-10-31T09:32:07;10.75;;;5.75;;
42846;SDS011;28495;49.916;14.536;2022-10-31T09:37:33;10.02;;;5.40;;
42846;SDS011;28495;49.916;14.536;2022-10-31T09:54:38;10.27;;;4.55;;
42846;SDS011;28495;49.916;14.536;2022-10-31T10:00:01;9.63;;;5.45;;
42846;SDS011;28495;49.916;14.536;2022-10-31T10:05:56;9.90;;;4.70;;
42846;SDS011;28495;49.916;14.536;2022-10-31T10:22:42;8.68;;;4.53;;
42846;SDS011;28495;49.916;14.536;2022-10-31T10:34:13;6.20;;;4.82;;
42846;SDS011;28495;49.916;14.536;2022-10-31T10:39:41;10.05;;;6.53;;
42846;SDS011;28495;49.916;14.536;2022-10-31T10:45:14;9.45;;;4.78;;
42846;SDS011;28495;49.916;14.536;2022-10-31T10:50:55;6.07;;;3.78;;
42846;SDS011;28495;49.916;14.536;2022-10-31T11:02:17;5.68;;;3.58;;
42846;SDS011;28495;49.916;14.536;2022-10-31T11:07:47;5.57;;;2.83;;
42846;SDS011;28495;49.916;14.536;2022-10-31T11:18:34;8.85;;;3.05;;
42846;SDS011;28495;49.916;14.536;2022-10-31T11:29:30;4.22;;;3.40;;
42846;SDS011;28495;49.916;14.536;2022-10-31T11:34:54;5.68;;;3.22;;
42846;SDS011;28495;49.916;14.536;2022-10-31T11:40:23;5.13;;;3.20;;
42846;SDS011;28495;49.916;14.536;2022-10-31T11:45:45;7.97;;;2.72;;
42846;SDS011;28495;49.916;14.536;2022-10-31T11:51:06;9.48;;;2.65;;
42846;SDS011;28495;49.916;14.536;2022-10-31T11:56:41;6.30;;;3.13;;
42846;SDS011;28495;49.916;14.536;2022-10-31T12:02:14;12.45;;;3.97;;
42846;SDS011;28495;49.916;14.536;2022-10-31T12:07:38;9.60;;;4.03;;
42846;SDS011;28495;49.916;14.536;2022-10-31T12:13:14;8.30;;;4.47;;
42846;SDS011;28495;49.916;14.536;2022-10-31T12:19:11;9.23;;;4.75;;
42846;SDS011;28495;49.916;14.536;2022-10-31T12:42:33;11.75;;;5.93;;
42846;SDS011;28495;49.916;14.536;2022-10-31T12:59:28;12.85;;;5.85;;
42846;SDS011;28495;49.916;14.536;2022-10-31T13:16:17;7.55;;;4.80;;
42846;SDS011;28495;49.916;14.536;2022-10-31T13:33:30;12.35;;;5.43;;
42846;SDS011;28495;49.916;14.536;2022-10-31T13:39:24;11.45;;;6.57;;
42846;SDS011;28495;49.916;14.536;2022-10-31T13:45:15;13.27;;;6.07;;
42846;SDS011;28495;49.916;14.536;2022-10-31T13:50:39;9.95;;;5.65;;
42846;SDS011;28495;49.916;14.536;2022-10-31T13:56:14;11.90;;;5.35;;
42846;SDS011;28495;49.916;14.536;2022-10-31T14:01:45;9.48;;;5.07;;
42846;SDS011;28495;49.916;14.536;2022-10-31T14:07:17;12.60;;;6.30;;
42846;SDS011;28495;49.916;14.536;2022-10-31T14:12:42;11.32;;;4.95;;
42846;SDS011;28495;49.916;14.536;2022-10-31T14:18:06;16.17;;;6.38;;
42846;SDS011;28495;49.916;14.536;2022-10-31T14:23:42;8.05;;;4.88;;
42846;SDS011;28495;49.916;14.536;2022-10-31T14:34:34;13.70;;;6.88;;
42846;SDS011;28495;49.916;14.536;2022-10-31T14:51:23;14.00;;;7.50;;
42846;SDS011;28495;49.916;14.536;2022-10-31T14:56:51;14.73;;;7.75;;
42846;SDS011;28495;49.916;14.536;2022-10-31T15:02:17;12.50;;;7.90;;
42846;SDS011;28495;49.916;14.536;2022-10-31T15:07:49;22.20;;;8.38;;
42846;SDS011;28495;49.916;14.536;2022-10-31T15:13:17;16.63;;;10.02;;
42846;SDS011;28495;49.916;14.536;2022-10-31T15:18:46;17.58;;;9.32;;
42846;SDS011;28495;49.916;14.536;2022-10-31T15:24:10;14.93;;;8.68;;
42846;SDS011;28495;49.916;14.536;2022-10-31T15:29:36;18.75;;;8.70;;
42846;SDS011;28495;49.916;14.536;2022-10-31T15:34:57;12.50;;;7.78;;
42846;SDS011;28495;49.916;14.536;2022-10-31T15:40:18;14.02;;;8.18;;
42846;SDS011;28495;49.916;14.536;2022-10-31T15:45:41;14.90;;;6.93;;
42846;SDS011;28495;49.916;14.536;2022-10-31T15:51:03;12.65;;;7.65;;
42846;SDS011;28495;49.916;14.536;2022-10-31T15:56:26;15.57;;;8.40;;
42846;SDS011;28495;49.916;14.536;2022-10-31T16:01:58;13.30;;;7.78;;
42846;SDS011;28495;49.916;14.536;2022-10-31T16:07:22;21.05;;;10.90;;
42846;SDS011;28495;49.916;14.536;2022-10-31T16:12:44;31.30;;;13.48;;
42846;SDS011;28495;49.916;14.536;2022-10-31T16:18:10;29.40;;;13.23;;
42846;SDS011;28495;49.916;14.536;2022-10-31T16:23:31;20.55;;;11.65;;
42846;SDS011;28495;49.916;14.536;2022-10-31T16:28:56;22.77;;;11.30;;
42846;SDS011;28495;49.916;14.536;2022-10-31T16:34:24;18.58;;;11.23;;
42846;SDS011;28495;49.916;14.536;2022-10-31T16:39:46;20.33;;;10.93;;
42846;SDS011;28495;49.916;14.536;2022-10-31T16:45:07;19.45;;;11.75;;
42846;SDS011;28495;49.916;14.536;2022-10-31T16:50:34;26.50;;;12.20;;
42846;SDS011;28495;49.916;14.536;2022-10-31T16:55:59;19.92;;;11.20;;
42846;SDS011;28495;49.916;14.536;2022-10-31T17:01:22;19.50;;;10.85;;
42846;SDS011;28495;49.916;14.536;2022-10-31T17:06:43;19.77;;;10.20;;
42846;SDS011;28495;49.916;14.536;2022-10-31T17:12:04;15.93;;;10.20;;
42846;SDS011;28495;49.916;14.536;2022-10-31T17:17:27;15.93;;;10.60;;
42846;SDS011;28495;49.916;14.536;2022-10-31T17:22:47;19.00;;;10.93;;
42846;SDS011;28495;49.916;14.536;2022-10-31T17:28:10;17.55;;;10.48;;
42846;SDS011;28495;49.916;14.536;2022-10-31T17:33:32;16.73;;;10.13;;
42846;SDS011;28495;49.916;14.536;2022-10-31T17:38:53;19.65;;;11.55;;
42846;SDS011;28495;49.916;14.536;2022-10-31T17:44:14;20.80;;;12.52;;
42846;SDS011;28495;49.916;14.536;2022-10-31T17:49:34;16.35;;;9.25;;
42846;SDS011;28495;49.916;14.536;2022-10-31T17:54:55;16.38;;;10.48;;
42846;SDS011;28495;49.916;14.536;2022-10-31T18:00:18;20.23;;;11.57;;
42846;SDS011;28495;49.916;14.536;2022-10-31T18:05:52;21.60;;;11.38;;
42846;SDS011;28495;49.916;14.536;2022-10-31T18:11:18;16.08;;;9.02;;
42846;SDS011;28495;49.916;14.536;2022-10-31T18:16:41;21.48;;;12.35;;
42846;SDS011;28495;49.916;14.536;2022-10-31T18:22:02;37.42;;;14.30;;
42846;SDS011;28495;49.916;14.536;2022-10-31T18:27:23;22.15;;;12.52;;
42846;SDS011;28495;49.916;14.536;2022-10-31T18:32:47;18.33;;;11.98;;
42846;SDS011;28495;49.916;14.536;2022-10-31T18:38:09;24.77;;;12.57;;
42846;SDS011;28495;49.916;14.536;2022-10-31T18:43:30;28.48;;;14.27;;
42846;SDS011;28495;49.916;14.536;2022-10-31T18:48:51;24.45;;;14.45;;
42846;SDS011;28495;49.916;14.536;2022-10-31T18:54:12;28.63;;;15.77;;
42846;SDS011;28495;49.916;14.536;2022-10-31T18:59:33;28.88;;;16.25;;
42846;SDS011;28495;49.916;14.536;2022-10-31T19:04:53;44.55;;;25.38;;
42846;SDS011;28495;49.916;14.536;2022-10-31T19:10:14;26.10;;;15.25;;
42846;SDS011;28495;49.916;14.536;2022-10-31T19:15:35;21.88;;;12.10;;
42846;SDS011;28495;49.916;14.536;2022-10-31T19:20:56;20.52;;;12.35;;
42846;SDS011;28495;49.916;14.536;2022-10-31T19:26:17;19.23;;;11.65;;
42846;SDS011;28495;49.916;14.536;2022-10-31T19:31:39;16.98;;;11.90;;
42846;SDS011;28495;49.916;14.536;2022-10-31T19:37:00;17.13;;;10.90;;
42846;SDS011;28495;49.916;14.536;2022-10-31T19:42:21;16.48;;;10.82;;
42846;SDS011;28495;49.916;14.536;2022-10-31T19:47:44;16.60;;;10.02;;
42846;SDS011;28495;49.916;14.536;2022-10-31T19:53:05;15.98;;;10.77;;
42846;SDS011;28495;49.916;14.536;2022-10-31T19:58:26;19.75;;;10.80;;
42846;SDS011;28495;49.916;14.536;2022-10-31T20:03:48;17.05;;;9.35;;
42846;SDS011;28495;49.916;14.536;2022-10-31T20:09:11;19.13;;;10.55;;
42846;SDS011;28495;49.916;14.536;2022-10-31T20:14:33;16.95;;;9.88;;
42846;SDS011;28495;49.916;14.536;2022-10-31T20:19:55;16.80;;;10.82;;
42846;SDS011;28495;49.916;14.536;2022-10-31T20:25:16;15.18;;;10.15;;
42846;SDS011;28495;49.916;14.536;2022-10-31T20:30:38;17.23;;;11.38;;
42846;SDS011;28495;49.916;14.536;2022-10-31T20:36:01;22.35;;;10.55;;
42846;SDS011;28495;49.916;14.536;2022-10-31T20:41:26;16.23;;;10.43;;
42846;SDS011;28495;49.916;14.536;2022-10-31T20:46:47;17.50;;;10.93;;
42846;SDS011;28495;49.916;14.536;2022-10-31T20:52:07;18.80;;;12.43;;
42846;SDS011;28495;49.916;14.536;2022-10-31T20:57:28;18.33;;;11.10;;
42846;SDS011;28495;49.916;14.536;2022-10-31T21:02:49;15.25;;;9.57;;
42846;SDS011;28495;49.916;14.536;2022-10-31T21:08:09;16.15;;;11.30;;
42846;SDS011;28495;49.916;14.536;2022-10-31T21:13:30;17.60;;;10.50;;
42846;SDS011;28495;49.916;14.536;2022-10-31T21:18:52;18.63;;;10.93;;
42846;SDS011;28495;49.916;14.536;2022-10-31T21:24:15;17.25;;;11.60;;
42846;SDS011;28495;49.916;14.536;2022-10-31T21:29:38;25.27;;;12.93;;
42846;SDS011;28495;49.916;14.536;2022-10-31T21:34:59;14.75;;;10.02;;
42846;SDS011;28495;49.916;14.536;2022-10-31T21:40:19;13.73;;;9.20;;
42846;SDS011;28495;49.916;14.536;2022-10-31T21:45:40;10.73;;;7.60;;
42846;SDS011;28495;49.916;14.536;2022-10-31T21:51:01;11.82;;;9.43;;
42846;SDS011;28495;49.916;14.536;2022-10-31T21:56:25;13.43;;;9.75;;
42846;SDS011;28495;49.916;14.536;2022-10-31T22:01:47;18.30;;;10.30;;
42846;SDS011;28495;49.916;14.536;2022-10-31T22:07:09;12.57;;;8.68;;
42846;SDS011;28495;49.916;14.536;2022-10-31T22:12:30;11.20;;;9.00;;
42846;SDS011;28495;49.916;14.536;2022-10-31T22:17:52;12.75;;;8.45;;
42846;SDS011;28495;49.916;14.536;2022-10-31T22:23:12;10.40;;;7.70;;
42846;SDS011;28495;49.916;14.536;2022-10-31T22:28:34;13.77;;;9.18;;
42846;SDS011;28495;49.916;14.536;2022-10-31T22:33:55;18.20;;;9.85;;
42846;SDS011;28495;49.916;14.536;2022-10-31T22:39:16;13.18;;;9.05;;
42846;SDS011;28495;49.916;14.536;2022-10-31T22:44:37;13.68;;;9.63;;
42846;SDS011;28495;49.916;14.536;2022-10-31T22:49:58;12.40;;;8.52;;
42846;SDS011;28495;49.916;14.536;2022-10-31T22:55:18;12.43;;;8.80;;
42846;SDS011;28495;49.916;14.536;2022-10-31T23:00:39;14.52;;;8.95;;
42846;SDS011;28495;49.916;14.536;2022-10-31T23:06:00;16.63;;;9.57;;
42846;SDS011;28495;49.916;14.536;2022-10-31T23:11:23;11.70;;;7.95;;
42846;SDS011;28495;49.916;14.536;2022-10-31T23:16:54;13.10;;;9.18;;
42846;SDS011;28495;49.916;14.536;2022-10-31T23:22:18;18.95;;;10.77;;
42846;SDS011;28495;49.916;14.536;2022-10-31T23:27:38;17.50;;;10.38;;
42846;SDS011;28495;49.916;14.536;2022-10-31T23:32:59;15.48;;;9.48;;
42846;SDS011;28495;49.916;14.536;2022-10-31T23:38:20;15.68;;;9.63;;
42846;SDS011;28495;49.916;14.536;2022-10-31T23:43:41;16.52;;;10.77;;
42846;SDS011;28495;49.916;14.536;2022-10-31T23:49:02;16.85;;;10.20;;
42846;SDS011;28495;49.916;14.536;2022-10-31T23:54:23;15.73;;;10.52;;
42846;SDS011;28495;49.916;14.536;2022-10-31T23:59:45;17.98;;;10.90;;
